createdAt,value
2022-11-12T00:02:28.282Z,10.06
2022-11-12T00:04:57.757Z,10.11
2022-11-12T00:07:29.837Z,10.08
2022-11-12T00:09:59.336Z,10.08
2022-11-12T00:12:28.921Z,10.12
2022-11-12T00:14:58.400Z,10.12
2022-11-12T00:17:28.211Z,10.18
2022-11-12T00:19:57.704Z,10.20
2022-11-12T00:22:29.873Z,10.25
2022-11-12T00:24:59.304Z,10.29
2022-11-12T00:27:28.749Z,10.34
2022-11-12T00:29:58.200Z,10.37
2022-11-12T00:32:27.692Z,10.31
2022-11-12T00:34:59.279Z,10.32
2022-11-12T00:37:34.475Z,10.26
2022-11-12T00:40:03.895Z,10.28
2022-11-12T00:42:33.360Z,10.21
2022-11-12T00:45:02.836Z,10.27
2022-11-12T00:47:32.299Z,10.28
2022-11-12T00:50:01.738Z,10.29
2022-11-12T00:52:33.782Z,10.33
2022-11-12T00:55:03.246Z,10.36
2022-11-12T00:57:32.712Z,10.34
2022-11-12T01:00:02.163Z,10.34
2022-11-12T01:02:32.350Z,10.25
2022-11-12T01:05:04.107Z,10.27
2022-11-12T01:07:36.162Z,10.36
2022-11-12T01:10:06.048Z,10.47
2022-11-12T01:12:35.499Z,10.52
2022-11-12T01:15:05.015Z,10.54
2022-11-12T01:17:34.485Z,10.51
2022-11-12T01:20:03.964Z,10.54
2022-11-12T01:22:38.512Z,10.52
2022-11-12T01:25:09.031Z,10.53
2022-11-12T01:27:38.452Z,10.55
2022-11-12T01:30:08.800Z,10.52
2022-11-12T01:32:39.135Z,10.49
2022-11-12T01:35:09.432Z,10.47
2022-11-12T01:37:41.467Z,10.46
2022-11-12T01:40:12.545Z,10.35
2022-11-12T01:42:41.822Z,10.52
2022-11-12T01:45:16.295Z,10.51
2022-11-12T01:47:45.785Z,10.48
2022-11-12T01:50:18.337Z,10.52
2022-11-12T01:52:51.716Z,10.55
2022-11-12T01:55:23.184Z,10.61
2022-11-12T01:57:54.731Z,10.57
2022-11-12T02:00:24.432Z,10.56
2022-11-12T02:02:55.813Z,10.50
2022-11-12T02:05:25.542Z,10.49
2022-11-12T02:07:57.560Z,10.46
2022-11-12T02:10:27.034Z,10.52
2022-11-12T02:13:09.034Z,10.49
2022-11-12T02:15:38.489Z,10.54
2022-11-12T02:18:08.112Z,10.57
2022-11-12T02:20:37.750Z,10.59
2022-11-12T02:23:10.071Z,10.57
2022-11-12T02:25:39.537Z,10.50
2022-11-12T02:28:09.890Z,10.50
2022-11-12T02:30:41.190Z,10.52
2022-11-12T02:33:10.678Z,10.48
2022-11-12T02:35:40.183Z,10.48
2022-11-12T02:38:12.288Z,10.50
2022-11-12T02:40:41.790Z,10.50
2022-11-12T02:43:11.242Z,10.52
2022-11-12T02:45:40.759Z,10.52
2022-11-12T02:48:13.957Z,10.55
2022-11-12T02:50:45.975Z,10.52
2022-11-12T02:53:18.018Z,10.55
2022-11-12T02:55:47.463Z,10.57
2022-11-12T02:58:16.951Z,10.56
2022-11-12T03:00:46.465Z,10.39
2022-11-12T03:03:15.934Z,10.42
2022-11-12T03:05:45.431Z,10.40
2022-11-12T03:08:14.902Z,10.42
2022-11-12T03:10:46.927Z,10.15
2022-11-12T03:13:16.378Z,10.00
2022-11-12T03:15:45.855Z,9.88
2022-11-12T03:18:15.339Z,10.04
2022-11-12T03:20:44.759Z,9.97
2022-11-12T03:23:14.181Z,9.68
2022-11-12T03:25:43.636Z,9.35
2022-11-12T03:28:16.603Z,8.83
2022-11-12T03:30:46.285Z,8.74
2022-11-12T03:33:17.202Z,8.68
2022-11-12T03:35:46.663Z,8.51
2022-11-12T03:38:16.133Z,8.74
2022-11-12T03:40:45.619Z,8.48
2022-11-12T03:43:17.653Z,8.51
2022-11-12T03:45:47.134Z,8.63
2022-11-12T03:48:16.567Z,8.71
2022-11-12T03:50:46.019Z,8.98
2022-11-12T03:53:15.604Z,9.28
2022-11-12T03:55:45.051Z,9.59
2022-11-12T03:58:17.070Z,9.22
2022-11-12T04:00:46.573Z,9.50
2022-11-12T04:03:16.046Z,9.74
2022-11-12T04:05:57.980Z,9.90
2022-11-12T04:08:39.906Z,9.66
2022-11-12T04:11:12.534Z,9.44
2022-11-12T04:13:47.469Z,9.24
2022-11-12T04:16:30.197Z,8.78
2022-11-12T04:19:13.238Z,8.98
2022-11-12T04:21:57.340Z,8.77
2022-11-12T04:24:40.612Z,8.96
2022-11-12T04:27:10.929Z,9.25
2022-11-12T04:29:55.423Z,8.76
2022-11-12T04:32:25.497Z,8.13
2022-11-12T04:34:55.182Z,8.02
2022-11-12T04:37:24.834Z,8.29
2022-11-12T04:39:54.380Z,8.38
2022-11-12T04:42:36.360Z,8.53
2022-11-12T04:45:09.044Z,8.84
2022-11-12T04:47:39.644Z,8.81
2022-11-12T04:50:11.544Z,9.07
2022-11-12T04:52:41.019Z,9.05
2022-11-12T04:55:11.483Z,8.98
2022-11-12T04:57:40.935Z,9.25
2022-11-12T05:00:14.575Z,9.52
2022-11-12T05:02:44.040Z,9.75
2022-11-12T05:05:13.488Z,9.83
2022-11-12T05:07:42.966Z,9.79
2022-11-12T05:10:12.458Z,9.85
2022-11-12T05:12:41.982Z,9.51
2022-11-12T05:15:14.528Z,8.82
2022-11-12T05:17:45.280Z,8.09
2022-11-12T05:20:14.889Z,7.80
2022-11-12T05:22:59.047Z,7.54
2022-11-12T05:25:33.796Z,7.48
2022-11-12T05:28:03.289Z,7.24
2022-11-12T05:30:35.354Z,7.66
2022-11-12T05:33:04.834Z,8.03
2022-11-12T05:35:34.303Z,8.26
2022-11-12T05:38:03.767Z,8.21
2022-11-12T05:40:33.215Z,8.08
2022-11-12T05:43:02.675Z,8.23
2022-11-12T05:45:34.708Z,8.24
2022-11-12T05:48:04.152Z,7.95
2022-11-12T05:50:51.285Z,7.62
2022-11-12T05:53:23.169Z,7.60
2022-11-12T05:55:52.623Z,7.77
2022-11-12T05:58:22.147Z,7.71
2022-11-12T06:00:54.184Z,8.02
2022-11-12T06:03:24.295Z,7.80
2022-11-12T06:05:53.771Z,7.46
2022-11-12T06:08:23.423Z,7.73
2022-11-12T06:10:53.202Z,7.73
2022-11-12T06:13:22.878Z,7.95
2022-11-12T06:15:55.036Z,7.84
2022-11-12T06:18:24.969Z,8.12
2022-11-12T06:21:07.018Z,8.08
2022-11-12T06:26:10.462Z,7.91
2022-11-12T06:28:39.975Z,7.83
2022-11-12T06:31:12.208Z,8.10
2022-11-12T06:33:41.981Z,7.78
2022-11-12T06:36:12.900Z,8.28
2022-11-12T06:38:42.945Z,8.70
2022-11-12T06:41:13.037Z,9.02
2022-11-12T06:43:42.873Z,9.20
2022-11-12T06:46:15.867Z,9.34
2022-11-12T06:48:45.617Z,9.41
2022-11-12T06:51:22.326Z,9.45
2022-11-12T06:53:52.165Z,9.56
2022-11-12T06:56:21.642Z,9.62
2022-11-12T06:58:51.113Z,9.57
2022-11-12T07:01:23.684Z,9.66
2022-11-12T07:03:54.311Z,9.73
2022-11-12T07:06:23.858Z,9.62
2022-11-12T07:08:53.373Z,9.67
2022-11-12T07:11:22.965Z,9.50
2022-11-12T07:13:52.431Z,9.67
2022-11-12T07:16:24.496Z,9.64
2022-11-12T07:18:53.972Z,9.66
2022-11-12T07:21:23.696Z,9.82
2022-11-12T07:23:53.192Z,9.92
2022-11-12T07:26:23.454Z,9.87
2022-11-12T07:28:53.388Z,9.58
2022-11-12T07:31:25.873Z,9.52
2022-11-12T07:33:55.372Z,9.78
2022-11-12T07:36:24.953Z,9.91
2022-11-12T07:38:55.104Z,10.00
2022-11-12T07:41:25.222Z,10.08
2022-11-12T07:43:55.511Z,9.86
2022-11-12T07:46:28.637Z,9.88
2022-11-12T07:48:58.392Z,9.83
2022-11-12T07:51:28.788Z,9.89
2022-11-12T07:53:59.968Z,9.84
2022-11-12T07:56:29.908Z,9.86
2022-11-12T07:58:59.425Z,9.97
2022-11-12T08:01:32.644Z,9.95
2022-11-12T08:04:02.482Z,10.05
2022-11-12T08:06:32.543Z,10.02
2022-11-12T08:09:06.412Z,10.00
2022-11-12T08:11:36.048Z,10.20
2022-11-12T08:14:05.836Z,10.26
2022-11-12T08:16:37.946Z,10.31
2022-11-12T08:19:07.472Z,10.30
2022-11-12T08:21:37.143Z,10.25
2022-11-12T08:24:06.900Z,10.26
2022-11-12T08:26:36.610Z,10.27
2022-11-12T08:29:08.681Z,10.06
2022-11-12T08:31:41.135Z,9.99
2022-11-12T08:34:22.333Z,9.89
2022-11-12T08:36:52.237Z,9.91
2022-11-12T08:39:21.779Z,10.02
2022-11-12T08:41:51.309Z,10.17
2022-11-12T08:44:20.829Z,10.27
2022-11-12T08:46:53.136Z,10.35
2022-11-12T08:49:22.628Z,10.38
2022-11-12T08:51:52.084Z,10.44
2022-11-12T08:54:21.574Z,9.45
2022-11-12T08:56:51.036Z,9.01
2022-11-12T08:59:20.521Z,9.28
2022-11-12T09:01:52.609Z,9.68
2022-11-12T09:04:22.209Z,9.77
2022-11-12T09:06:54.039Z,10.06
2022-11-12T09:09:23.960Z,10.24
2022-11-12T09:11:53.420Z,10.25
2022-11-12T09:14:23.123Z,10.23
2022-11-12T09:16:55.228Z,9.96
2022-11-12T09:19:24.723Z,10.19
2022-11-12T09:21:54.200Z,10.28
2022-11-12T09:24:23.672Z,9.79
2022-11-12T09:26:55.660Z,10.04
2022-11-12T09:29:25.286Z,9.85
2022-11-12T09:31:59.589Z,10.07
2022-11-12T09:34:29.323Z,10.14
2022-11-12T09:36:58.976Z,10.11
2022-11-12T09:39:28.584Z,9.81
2022-11-12T09:42:01.905Z,9.27
2022-11-12T09:44:36.540Z,9.69
2022-11-12T09:47:10.692Z,9.87
2022-11-12T09:49:41.927Z,10.11
2022-11-12T09:52:15.227Z,10.18
2022-11-12T09:54:44.772Z,9.74
2022-11-12T09:57:14.267Z,9.24
2022-11-12T09:59:44.397Z,9.14
2022-11-12T10:02:25.853Z,8.76
2022-11-12T10:05:02.643Z,8.79
2022-11-12T10:07:40.182Z,9.21
2022-11-12T10:10:12.895Z,9.08
2022-11-12T10:12:49.494Z,8.68
2022-11-12T10:15:51.960Z,8.79
2022-11-12T10:18:31.549Z,9.33
2022-11-12T10:21:03.077Z,9.40
2022-11-12T10:23:35.390Z,9.56
2022-11-12T10:26:05.078Z,9.44
2022-11-12T10:28:38.894Z,9.61
2022-11-12T10:31:13.518Z,9.44
2022-11-12T10:33:45.575Z,9.35
2022-11-12T10:36:21.950Z,9.74
2022-11-12T10:38:52.958Z,9.71
2022-11-12T10:41:24.421Z,9.59
2022-11-12T10:43:56.547Z,9.91
2022-11-12T10:46:27.164Z,10.02
2022-11-12T10:49:01.345Z,9.98
2022-11-12T10:51:33.258Z,9.83
2022-11-12T10:54:04.763Z,9.25
2022-11-12T10:56:34.952Z,9.55
2022-11-12T10:59:12.300Z,9.96
2022-11-12T11:01:45.477Z,10.27
2022-11-12T11:04:25.817Z,10.22
2022-11-12T11:07:01.725Z,10.57
2022-11-12T11:09:34.008Z,10.81
2022-11-12T11:12:03.547Z,10.94
2022-11-12T11:14:34.665Z,11.04
2022-11-12T11:17:08.420Z,11.24
2022-11-12T11:19:44.508Z,11.01
2022-11-12T11:22:23.904Z,10.52
2022-11-12T11:25:13.407Z,10.25
2022-11-12T11:27:44.975Z,10.38
2022-11-12T11:30:15.514Z,10.30
2022-11-12T11:33:00.858Z,10.35
2022-11-12T11:35:36.775Z,10.42
2022-11-12T11:38:27.375Z,10.76
2022-11-12T11:41:01.648Z,10.71
2022-11-12T11:43:49.445Z,10.69
2022-11-12T11:46:23.191Z,10.84
2022-11-12T11:49:04.255Z,10.61
2022-11-12T11:51:42.692Z,10.77
2022-11-12T11:54:21.049Z,11.00
2022-11-12T11:56:50.743Z,11.17
2022-11-12T11:59:25.907Z,11.08
2022-11-12T12:02:03.814Z,10.73
2022-11-12T12:04:42.410Z,9.87
2022-11-12T12:07:19.821Z,9.59
2022-11-12T12:09:51.674Z,9.13
2022-11-12T12:12:27.448Z,8.90
2022-11-12T12:14:59.961Z,9.07
2022-11-12T12:17:36.874Z,9.06
2022-11-12T12:20:11.625Z,9.53
2022-11-12T12:22:44.776Z,9.90
2022-11-12T12:25:16.366Z,10.20
2022-11-12T12:27:50.303Z,10.02
2022-11-12T12:30:22.604Z,9.27
2022-11-12T12:32:55.106Z,9.38
2022-11-12T12:35:26.836Z,9.75
2022-11-12T12:38:02.026Z,10.10
2022-11-12T12:40:35.383Z,10.47
2022-11-12T12:43:07.475Z,10.24
2022-11-12T12:45:41.233Z,9.97
2022-11-12T12:48:15.812Z,9.54
2022-11-12T12:50:45.569Z,9.73
2022-11-12T12:53:33.467Z,9.60
2022-11-12T12:56:03.997Z,9.57
2022-11-12T12:58:34.286Z,9.74
2022-11-12T13:01:05.189Z,10.07
2022-11-12T13:03:51.968Z,10.35
2022-11-12T13:06:29.112Z,10.45
2022-11-12T13:09:03.222Z,10.18
2022-11-12T13:12:03.759Z,10.21
2022-11-12T13:15:03.075Z,10.01
2022-11-12T13:17:46.300Z,10.36
2022-11-12T13:20:34.984Z,10.49
2022-11-12T13:23:04.500Z,10.71
2022-11-12T13:25:36.670Z,10.44
2022-11-12T13:28:14.361Z,10.86
2022-11-12T13:31:00.624Z,11.11
2022-11-12T13:33:34.776Z,11.12
2022-11-12T13:36:20.881Z,11.12
2022-11-12T13:38:50.372Z,10.79
2022-11-12T13:41:42.954Z,10.16
2022-11-12T13:44:15.825Z,9.80
2022-11-12T13:46:45.278Z,9.66
2022-11-12T13:49:15.868Z,9.70
2022-11-12T13:51:46.651Z,9.69
2022-11-12T13:54:37.498Z,10.12
2022-11-12T13:57:29.748Z,10.70
2022-11-12T14:00:27.487Z,11.04
2022-11-12T14:02:58.606Z,11.15
2022-11-12T14:05:28.171Z,11.37
2022-11-12T14:08:19.180Z,11.38
2022-11-12T14:10:50.075Z,11.38
2022-11-12T14:13:51.876Z,11.45
2022-11-12T14:16:28.797Z,11.40
2022-11-12T14:19:43.416Z,11.42
2022-11-12T14:22:17.241Z,11.44
2022-11-12T14:24:48.257Z,11.43
2022-11-12T14:27:35.023Z,11.48
2022-11-12T14:30:14.289Z,11.02
2022-11-12T14:32:44.845Z,11.16
2022-11-12T14:35:28.385Z,11.25
2022-11-12T14:37:59.847Z,11.14
2022-11-12T14:40:30.425Z,11.09
2022-11-12T14:42:59.919Z,11.21
2022-11-12T14:45:35.119Z,10.81
2022-11-12T14:48:04.947Z,10.96
2022-11-12T14:50:40.411Z,11.23
2022-11-12T14:53:14.328Z,11.40
2022-11-12T14:55:44.390Z,11.51
2022-11-12T14:58:15.099Z,11.55
2022-11-12T15:00:48.014Z,11.62
2022-11-12T15:03:18.429Z,11.56
2022-11-12T15:06:01.918Z,11.63
2022-11-12T15:08:32.899Z,11.65
2022-11-12T15:11:24.310Z,11.69
2022-11-12T15:13:54.100Z,11.60
2022-11-12T15:16:27.513Z,11.57
2022-11-12T15:19:16.915Z,11.55
2022-11-12T15:21:50.796Z,11.37
2022-11-12T15:24:22.561Z,11.16
2022-11-12T15:26:53.487Z,11.05
2022-11-12T15:29:28.478Z,10.60
2022-11-12T15:32:02.273Z,10.26
2022-11-12T15:34:48.313Z,9.83
2022-11-12T15:37:24.212Z,9.67
2022-11-12T15:39:54.541Z,9.41
2022-11-12T15:42:27.212Z,9.69
2022-11-12T15:45:00.429Z,10.12
2022-11-12T15:47:32.550Z,10.39
2022-11-12T15:50:02.095Z,10.70
2022-11-12T15:52:32.539Z,10.89
2022-11-12T15:55:01.988Z,11.05
2022-11-12T15:57:32.393Z,11.15
2022-11-12T16:00:07.768Z,11.18
2022-11-12T16:02:40.638Z,11.17
2022-11-12T16:05:15.503Z,11.09
2022-11-12T16:07:44.967Z,10.62
2022-11-12T16:10:15.756Z,10.64
2022-11-12T16:12:45.469Z,10.88
2022-11-12T16:15:18.384Z,11.07
2022-11-12T16:17:50.808Z,11.15
2022-11-12T16:20:21.612Z,11.21
2022-11-12T16:22:51.230Z,11.27
2022-11-12T16:25:20.800Z,11.27
2022-11-12T16:27:55.562Z,11.32
2022-11-12T16:30:26.336Z,11.29
2022-11-12T16:32:59.649Z,11.26
2022-11-12T16:35:29.818Z,11.32
2022-11-12T16:37:59.439Z,11.40
2022-11-12T16:40:29.856Z,11.31
2022-11-12T16:42:59.439Z,11.40
2022-11-12T16:45:34.934Z,11.13
2022-11-12T16:48:09.937Z,11.24
2022-11-12T16:50:39.473Z,11.30
2022-11-12T16:53:09.036Z,11.26
2022-11-12T16:55:38.517Z,11.22
2022-11-12T16:58:07.996Z,11.31
2022-11-12T17:00:37.701Z,11.24
2022-11-12T17:03:11.573Z,11.02
2022-11-12T17:05:41.072Z,11.19
2022-11-12T17:08:11.482Z,11.29
2022-11-12T17:10:41.110Z,11.38
2022-11-12T17:13:11.846Z,11.42
2022-11-12T17:15:41.317Z,11.46
2022-11-12T17:18:13.364Z,11.45
2022-11-12T17:20:46.029Z,11.47
2022-11-12T17:23:19.428Z,11.47
2022-11-12T17:25:48.888Z,11.44
2022-11-12T17:28:18.347Z,11.43
2022-11-12T17:30:47.856Z,11.52
2022-11-12T17:33:19.880Z,11.43
2022-11-12T17:35:49.380Z,11.41
2022-11-12T17:38:18.850Z,11.41
2022-11-12T17:40:48.369Z,11.41
2022-11-12T17:43:17.864Z,11.42
2022-11-12T17:45:52.226Z,11.40
2022-11-12T17:48:24.672Z,11.42
2022-11-12T17:50:54.466Z,11.47
2022-11-12T17:53:24.043Z,11.45
2022-11-12T17:55:59.013Z,11.44
2022-11-12T17:58:28.532Z,11.24
2022-11-12T18:00:58.477Z,10.87
2022-11-12T18:03:30.593Z,10.75
2022-11-12T18:06:00.482Z,10.99
2022-11-12T18:08:30.030Z,11.09
2022-11-12T18:10:59.551Z,11.08
2022-11-12T18:13:29.463Z,11.17
2022-11-12T18:15:59.252Z,11.25
2022-11-12T18:18:31.369Z,11.31
2022-11-12T18:21:00.874Z,11.35
2022-11-12T18:23:30.504Z,11.44
2022-11-12T18:26:00.071Z,11.54
2022-11-12T18:28:29.593Z,11.52
2022-11-12T18:31:02.074Z,11.53
2022-11-12T18:33:36.044Z,11.46
2022-11-12T18:36:06.209Z,11.48
2022-11-12T18:38:38.735Z,11.51
2022-11-12T18:41:09.569Z,11.48
2022-11-12T18:43:39.260Z,11.52
2022-11-12T18:46:09.238Z,11.54
2022-11-12T18:48:41.443Z,11.54
2022-11-12T18:51:14.853Z,11.53
2022-11-12T18:53:45.651Z,11.49
2022-11-12T18:56:15.895Z,11.51
2022-11-12T18:58:45.420Z,11.54
2022-11-12T19:01:15.965Z,11.57
2022-11-12T19:03:48.252Z,11.55
2022-11-12T19:06:17.887Z,11.51
2022-11-12T19:08:47.370Z,11.56
2022-11-12T19:11:18.686Z,11.60
2022-11-12T19:13:48.178Z,11.62
2022-11-12T19:16:18.842Z,11.60
2022-11-12T19:18:51.460Z,11.60
2022-11-12T19:21:22.133Z,11.59
2022-11-12T19:23:54.412Z,11.55
2022-11-12T19:26:25.162Z,11.50
2022-11-12T19:28:54.709Z,11.55
2022-11-12T19:31:25.883Z,11.49
2022-11-12T19:33:57.670Z,11.49
2022-11-12T19:36:28.040Z,11.41
2022-11-12T19:38:58.318Z,11.44
2022-11-12T19:41:28.107Z,11.51
2022-11-12T19:43:57.600Z,11.50
2022-11-12T19:46:27.427Z,11.50
2022-11-12T19:48:59.696Z,11.52
2022-11-12T19:51:30.866Z,11.55
2022-11-12T19:54:00.092Z,11.66
2022-11-12T19:56:30.607Z,11.65
2022-11-12T19:59:00.209Z,11.57
2022-11-12T20:01:29.823Z,11.54
2022-11-12T20:04:01.923Z,11.48
2022-11-12T20:06:31.716Z,11.52
2022-11-12T20:09:01.398Z,11.56
2022-11-12T20:11:30.956Z,11.57
2022-11-12T20:14:00.664Z,11.49
2022-11-12T20:16:30.177Z,11.40
2022-11-12T20:19:02.515Z,11.43
2022-11-12T20:21:32.056Z,11.22
2022-11-12T20:24:01.617Z,10.87
2022-11-12T20:26:31.132Z,10.59
2022-11-12T20:29:00.641Z,10.36
2022-11-12T20:31:30.220Z,10.47
2022-11-12T20:34:02.300Z,10.70
2022-11-12T20:36:31.999Z,10.59
2022-11-12T20:39:02.219Z,10.69
2022-11-12T20:41:31.719Z,10.42
2022-11-12T20:44:02.673Z,10.18
2022-11-12T20:46:32.574Z,10.50
2022-11-12T20:49:06.570Z,10.57
2022-11-12T20:51:36.374Z,10.54
2022-11-12T20:54:06.024Z,10.55
2022-11-12T20:56:35.583Z,10.41
2022-11-12T20:59:05.111Z,10.37
2022-11-12T21:01:34.635Z,10.16
2022-11-12T21:04:07.044Z,10.07
2022-11-12T21:06:36.576Z,10.42
2022-11-12T21:09:06.610Z,10.69
2022-11-12T21:11:36.129Z,10.99
2022-11-12T21:14:05.632Z,11.15
2022-11-12T21:16:35.272Z,11.18
2022-11-12T21:19:07.457Z,11.19
2022-11-12T21:21:36.970Z,10.78
2022-11-12T21:24:06.744Z,10.66
2022-11-12T21:26:36.242Z,10.29
2022-11-12T21:29:07.120Z,10.58
2022-11-12T21:31:36.631Z,10.85
2022-11-12T21:34:08.973Z,10.94
2022-11-12T21:36:38.488Z,10.99
2022-11-12T21:39:10.112Z,11.08
2022-11-12T21:41:39.621Z,10.74
2022-11-12T21:44:09.594Z,10.62
2022-11-12T21:46:40.412Z,10.89
2022-11-12T21:49:12.640Z,10.97
2022-11-12T21:51:42.132Z,10.84
2022-11-12T21:54:11.619Z,10.72
2022-11-12T21:56:42.062Z,10.84
2022-11-12T21:59:11.558Z,11.05
2022-11-12T22:01:41.493Z,10.98
2022-11-12T22:04:18.108Z,10.80
2022-11-12T22:06:48.057Z,10.83
2022-11-12T22:09:17.594Z,10.30
2022-11-12T22:11:47.093Z,10.35
2022-11-12T22:14:16.583Z,10.49
2022-11-12T22:16:46.060Z,10.66
2022-11-12T22:19:21.404Z,10.19
2022-11-12T22:21:51.063Z,10.04
2022-11-12T22:24:20.689Z,10.38
2022-11-12T22:26:50.247Z,10.67
2022-11-12T22:29:19.733Z,10.84
2022-11-12T22:31:49.254Z,10.53
2022-11-12T22:34:21.364Z,10.44
2022-11-12T22:36:50.877Z,10.51
2022-11-12T22:39:20.364Z,10.54
2022-11-12T22:41:49.844Z,10.52
2022-11-12T22:44:19.347Z,10.70
2022-11-12T22:46:48.840Z,10.92
2022-11-12T22:49:20.899Z,10.85
2022-11-12T22:51:50.378Z,10.69
2022-11-12T22:54:20.013Z,10.75
2022-11-12T22:56:49.496Z,10.85
2022-11-12T22:59:18.991Z,10.88
2022-11-12T23:01:48.589Z,10.94
2022-11-12T23:04:20.749Z,10.82
2022-11-12T23:06:50.287Z,10.89
2022-11-12T23:09:20.058Z,10.98
2022-11-12T23:11:49.557Z,11.13
2022-11-12T23:14:19.035Z,11.18
2022-11-12T23:16:49.648Z,10.76
2022-11-12T23:19:21.716Z,10.86
2022-11-12T23:21:51.277Z,10.67
2022-11-12T23:24:20.832Z,10.71
2022-11-12T23:26:50.317Z,10.81
2022-11-12T23:29:19.808Z,10.95
2022-11-12T23:31:49.281Z,10.95
2022-11-12T23:34:21.468Z,11.04
2022-11-12T23:36:51.048Z,11.20
2022-11-12T23:39:20.545Z,11.26
2022-11-12T23:41:50.070Z,11.22
2022-11-12T23:44:19.605Z,11.22
2022-11-12T23:46:49.096Z,11.08
2022-11-12T23:49:21.193Z,11.05
2022-11-12T23:51:50.720Z,10.97
2022-11-12T23:54:20.211Z,11.09
2022-11-12T23:56:49.691Z,11.08
2022-11-12T23:59:19.241Z,11.17
